createdAt,value
2022-11-18T00:02:10.554Z,93824.63
2022-11-18T00:04:37.605Z,93816.50
2022-11-18T00:07:04.745Z,93816.16
2022-11-18T00:09:31.904Z,93811.09
2022-11-18T00:11:58.988Z,93808.72
2022-11-18T00:14:26.694Z,93807.59
2022-11-18T00:16:57.659Z,93794.06
2022-11-18T00:19:30.797Z,93794.06
2022-11-18T00:21:58.589Z,93794.50
2022-11-18T00:24:26.605Z,93790.66
2022-11-18T00:26:54.918Z,93783.31
2022-11-18T00:29:23.312Z,93782.19
2022-11-18T00:31:50.477Z,93774.84
2022-11-18T00:34:18.654Z,93777.53
2022-11-18T00:36:47.016Z,93770.22
2022-11-18T00:39:16.944Z,93772.59
2022-11-18T00:41:44.392Z,93773.38
2022-11-18T00:44:11.436Z,93771.44
2022-11-18T00:46:38.578Z,93777.31
2022-11-18T00:49:05.768Z,93775.38
2022-11-18T00:51:32.884Z,93766.94
2022-11-18T00:53:59.934Z,93756.53
2022-11-18T00:56:27.145Z,93769.72
2022-11-18T00:58:54.386Z,93764.31
2022-11-18T01:01:21.636Z,93757.75
2022-11-18T01:03:48.764Z,93750.41
2022-11-18T01:06:16.298Z,93743.88
2022-11-18T01:08:43.443Z,93737.66
2022-11-18T01:11:10.702Z,93738.78
2022-11-18T01:13:37.929Z,93743.41
2022-11-18T01:16:05.285Z,93739.16
2022-11-18T01:18:32.452Z,93740.28
2022-11-18T01:21:03.790Z,93741.44
2022-11-18T01:23:30.897Z,93742.56
2022-11-18T01:25:58.101Z,93737.47
2022-11-18T01:28:25.097Z,93731.63
2022-11-18T01:30:52.300Z,93732.38
2022-11-18T01:33:19.714Z,93729.25
2022-11-18T01:35:46.765Z,93733.09
2022-11-18T01:38:14.272Z,93726.56
2022-11-18T01:40:41.886Z,93716.06
2022-11-18T01:43:18.247Z,93718.78
2022-11-18T01:45:48.349Z,93715.25
2022-11-18T01:48:34.162Z,93705.94
2022-11-18T01:51:06.135Z,93711.34
2022-11-18T01:53:37.540Z,93703.22
2022-11-18T01:56:08.740Z,93705.13
2022-11-18T01:58:46.828Z,93705.13
2022-11-18T02:01:14.209Z,93710.53
2022-11-18T02:03:43.317Z,93723.31
2022-11-18T02:06:11.840Z,93719.81
2022-11-18T02:08:39.454Z,93719.81
2022-11-18T02:11:10.757Z,93729.06
2022-11-18T02:13:37.918Z,93730.66
2022-11-18T02:16:15.953Z,93740.69
2022-11-18T02:18:49.360Z,93731.63
2022-11-18T02:21:40.177Z,93736.06
2022-11-18T02:24:22.393Z,93730.31
2022-11-18T02:27:00.364Z,93738.09
2022-11-18T02:29:30.964Z,93741.41
2022-11-18T02:32:03.198Z,93740.78
2022-11-18T02:35:02.970Z,93739.97
2022-11-18T02:37:49.034Z,93741.56
2022-11-18T02:40:33.684Z,93739.63
2022-11-18T02:43:15.800Z,93745.50
2022-11-18T02:45:48.644Z,93747.06
2022-11-18T02:48:17.841Z,93738.25
2022-11-18T02:50:48.948Z,93734.09
2022-11-18T02:53:20.153Z,93732.16
2022-11-18T02:55:49.312Z,93734.84
2022-11-18T02:58:20.676Z,93731.38
2022-11-18T03:00:56.555Z,93731.03
2022-11-18T03:03:27.901Z,93731.03
2022-11-18T03:06:05.628Z,93732.56
2022-11-18T03:08:39.353Z,93728.31
2022-11-18T03:11:20.458Z,93725.59
2022-11-18T03:13:52.140Z,93725.59
2022-11-18T03:16:26.812Z,93721.75
2022-11-18T03:19:15.287Z,93728.75
2022-11-18T03:22:10.801Z,93721.75
2022-11-18T03:24:47.450Z,93727.63
2022-11-18T03:27:24.400Z,93720.63
2022-11-18T03:30:01.523Z,93719.03
2022-11-18T03:32:32.426Z,93717.91
2022-11-18T03:35:04.273Z,93714.41
2022-11-18T03:37:35.089Z,93717.91
2022-11-18T03:40:09.951Z,93727.97
2022-11-18T03:42:47.649Z,93729.88
2022-11-18T03:45:24.097Z,93743.41
2022-11-18T03:47:59.011Z,93739.56
2022-11-18T03:50:38.630Z,93738.78
2022-11-18T03:53:07.047Z,93741.16
2022-11-18T03:55:39.723Z,93753.13
2022-11-18T03:58:17.010Z,93749.63
2022-11-18T04:00:48.541Z,93754.25
2022-11-18T04:03:15.891Z,93767.44
2022-11-18T04:05:44.110Z,93770.50
2022-11-18T04:08:13.680Z,93769.06
2022-11-18T04:10:58.182Z,93776.66
2022-11-18T04:13:30.124Z,93781.56
2022-11-18T04:15:57.521Z,93778.44
2022-11-18T04:18:24.781Z,93785.69
2022-11-18T04:20:51.837Z,93794.50
2022-11-18T04:23:19.284Z,93801.75
2022-11-18T04:25:46.393Z,93809.81
2022-11-18T04:28:13.492Z,93808.13
2022-11-18T04:30:40.583Z,93810.72
2022-11-18T04:33:07.890Z,93812.91
2022-11-18T04:35:34.965Z,93813.59
2022-11-18T04:38:02.013Z,93806.53
2022-11-18T04:40:29.236Z,93810.69
2022-11-18T04:42:56.279Z,93806.31
2022-11-18T04:45:23.453Z,93806.22
2022-11-18T04:47:50.686Z,93802.31
2022-11-18T04:50:17.833Z,93809.53
2022-11-18T04:52:45.009Z,93809.09
2022-11-18T04:55:12.051Z,93802.88
2022-11-18T04:57:39.108Z,93799.75
2022-11-18T05:00:06.877Z,93788.91
2022-11-18T05:02:33.980Z,93797.81
2022-11-18T05:05:01.028Z,93789.69
2022-11-18T05:07:28.230Z,93785.09
2022-11-18T05:09:55.316Z,93779.69
2022-11-18T05:12:22.417Z,93785.88
2022-11-18T05:14:50.841Z,93778.09
2022-11-18T05:17:18.849Z,93786.66
2022-11-18T05:19:46.009Z,93776.97
2022-11-18T05:22:14.692Z,93785.09
2022-11-18T05:24:41.803Z,93783.16
2022-11-18T05:27:08.928Z,93781.22
2022-11-18T05:29:36.109Z,93784.75
2022-11-18T05:32:03.242Z,93779.34
2022-11-18T05:34:30.534Z,93776.97
2022-11-18T05:36:57.617Z,93780.81
2022-11-18T05:39:24.701Z,93773.47
2022-11-18T05:41:51.868Z,93771.09
2022-11-18T05:44:19.094Z,93781.94
2022-11-18T05:46:46.186Z,93777.66
2022-11-18T05:49:13.365Z,93784.97
2022-11-18T05:51:40.585Z,93785.34
2022-11-18T05:54:09.670Z,93788.41
2022-11-18T05:56:39.144Z,93790.63
2022-11-18T05:59:06.946Z,93790.63
2022-11-18T06:01:49.188Z,93797.09
2022-11-18T06:04:25.917Z,93793.59
2022-11-18T06:06:58.114Z,93794.72
2022-11-18T06:09:30.041Z,93789.22
2022-11-18T06:12:00.619Z,93789.22
2022-11-18T06:14:37.685Z,93793.84
2022-11-18T06:17:10.514Z,93796.00
2022-11-18T06:19:37.916Z,93810.34
2022-11-18T06:22:05.958Z,93812.22
2022-11-18T06:24:33.444Z,93814.50
2022-11-18T06:27:01.075Z,93812.91
2022-11-18T06:29:28.691Z,93815.97
2022-11-18T06:31:56.091Z,93826.00
2022-11-18T06:34:23.226Z,93825.56
2022-11-18T06:36:50.483Z,93825.91
2022-11-18T06:39:17.788Z,93831.31
2022-11-18T06:41:45.044Z,93827.81
2022-11-18T06:44:12.516Z,93833.22
2022-11-18T06:46:39.649Z,93841.31
2022-11-18T06:49:06.768Z,93846.41
2022-11-18T06:51:33.857Z,93847.19
2022-11-18T06:54:04.728Z,93855.31
2022-11-18T06:56:34.951Z,93863.09
2022-11-18T06:59:02.241Z,93869.28
2022-11-18T07:01:31.464Z,93873.22
2022-11-18T07:04:00.200Z,93873.56
2022-11-18T07:06:30.192Z,93866.22
2022-11-18T07:08:57.393Z,93871.31
2022-11-18T07:11:25.993Z,93873.22
2022-11-18T07:13:53.698Z,93881.00
2022-11-18T07:16:23.657Z,93876.38
2022-11-18T07:18:52.212Z,93886.84
2022-11-18T07:21:21.770Z,93891.91
2022-11-18T07:23:49.628Z,93888.88
2022-11-18T07:26:16.917Z,93887.38
2022-11-18T07:28:43.965Z,93894.03
2022-11-18T07:31:16.233Z,93890.66
2022-11-18T07:33:44.503Z,93896.97
2022-11-18T07:36:12.804Z,93900.56
2022-11-18T07:38:40.133Z,93907.13
2022-11-18T07:41:08.044Z,93909.81
2022-11-18T07:43:36.546Z,93898.63
2022-11-18T07:46:20.270Z,93897.50
2022-11-18T07:48:49.417Z,93905.72
2022-11-18T07:51:18.166Z,93907.75
2022-11-18T07:53:45.972Z,93909.75
2022-11-18T07:56:14.171Z,93908.63
2022-11-18T07:58:42.473Z,93906.03
2022-11-18T08:01:11.915Z,93925.41
2022-11-18T08:03:39.796Z,93920.81
2022-11-18T08:06:08.515Z,93917.75
2022-11-18T08:08:36.414Z,93918.53
2022-11-18T08:11:07.784Z,93930.94
2022-11-18T08:13:35.881Z,93922.56
2022-11-18T08:16:04.503Z,93923.47
2022-11-18T08:18:32.768Z,93939.00
2022-11-18T08:21:03.764Z,93939.00
2022-11-18T08:23:34.048Z,93936.84
2022-11-18T08:26:11.778Z,93925.25
2022-11-18T08:28:39.141Z,93933.13
2022-11-18T08:31:14.844Z,93934.72
2022-11-18T08:33:42.020Z,93934.38
2022-11-18T08:36:18.570Z,93931.75
2022-11-18T08:38:45.728Z,93939.63
2022-11-18T08:41:14.574Z,93943.91
2022-11-18T08:43:41.876Z,93951.34
2022-11-18T08:46:09.038Z,93964.09
2022-11-18T08:48:36.245Z,93956.53
2022-11-18T08:51:04.584Z,93957.19
2022-11-18T08:53:31.741Z,93970.75
2022-11-18T08:56:00.483Z,93963.66
2022-11-18T08:58:28.257Z,93958.22
2022-11-18T09:00:55.636Z,93977.53
2022-11-18T09:03:23.200Z,93972.47
2022-11-18T09:05:50.462Z,93974.97
2022-11-18T09:08:17.573Z,93980.97
2022-11-18T09:10:44.957Z,93978.94
2022-11-18T09:13:40.467Z,93981.56
2022-11-18T09:16:00.266Z,93983.81
2022-11-18T09:18:27.356Z,93985.88
2022-11-18T09:20:56.398Z,93991.94
2022-11-18T09:23:23.724Z,93993.16
2022-11-18T09:26:01.144Z,94003.97
2022-11-18T09:28:28.711Z,94000.59
2022-11-18T09:30:56.169Z,94002.19
2022-11-18T09:33:32.018Z,94003.78
2022-11-18T09:35:59.163Z,94009.53
2022-11-18T09:38:28.478Z,94005.66
2022-11-18T09:41:07.201Z,94017.66
2022-11-18T09:43:48.171Z,94018.69
2022-11-18T09:46:22.453Z,94017.75
2022-11-18T09:48:50.237Z,94011.91
2022-11-18T09:51:17.369Z,94019.94
2022-11-18T09:53:44.954Z,94019.47
2022-11-18T09:56:15.395Z,94018.25
2022-11-18T09:58:43.833Z,94025.22
2022-11-18T10:01:18.228Z,94022.06
2022-11-18T10:03:45.667Z,94020.16
2022-11-18T10:06:25.000Z,94015.09
2022-11-18T10:09:13.356Z,94018.59
2022-11-18T10:12:01.924Z,94037.09
2022-11-18T10:15:02.761Z,94036.75
2022-11-18T10:18:02.394Z,94034.81
2022-11-18T10:20:38.331Z,94043.63
2022-11-18T10:23:21.900Z,94048.94
2022-11-18T10:25:48.969Z,94045.75
2022-11-18T10:28:27.306Z,94035.84
2022-11-18T10:30:54.420Z,94041.50
2022-11-18T10:33:21.438Z,94040.13
2022-11-18T10:35:49.536Z,94047.00
2022-11-18T10:38:18.197Z,94048.47
2022-11-18T10:40:50.834Z,94043.97
2022-11-18T10:43:54.530Z,94042.16
2022-11-18T10:46:33.262Z,94034.41
2022-11-18T10:49:09.555Z,94034.25
2022-11-18T10:51:39.533Z,94028.75
2022-11-18T10:54:14.074Z,94034.94
2022-11-18T10:56:58.493Z,94033.72
2022-11-18T10:59:36.336Z,94032.91
2022-11-18T11:02:32.588Z,94037.88
2022-11-18T11:05:03.014Z,94029.31
2022-11-18T11:07:36.037Z,94031.53
2022-11-18T11:10:19.076Z,94028.06
2022-11-18T11:12:56.387Z,94029.19
2022-11-18T11:15:41.378Z,94041.47
2022-11-18T11:18:21.133Z,94035.59
2022-11-18T11:20:48.471Z,94036.06
2022-11-18T11:23:22.106Z,94061.84
2022-11-18T11:29:07.621Z,94043.47
2022-11-18T11:31:54.585Z,94045.72
2022-11-18T11:34:50.777Z,94030.50
2022-11-18T11:37:17.935Z,94038.28
2022-11-18T11:39:54.108Z,94037.13
2022-11-18T11:42:51.346Z,94034.44
2022-11-18T11:45:29.951Z,94028.25
2022-11-18T11:48:23.557Z,94041.44
2022-11-18T11:51:01.932Z,94035.69
2022-11-18T11:53:53.471Z,94036.94
2022-11-18T11:56:47.569Z,94040.09
2022-11-18T11:59:43.122Z,94046.44
2022-11-18T12:02:27.870Z,94046.44
2022-11-18T12:05:10.849Z,94056.09
2022-11-18T12:07:46.693Z,94056.91
2022-11-18T12:10:32.864Z,94046.88
2022-11-18T12:13:18.742Z,94048.66
2022-11-18T12:16:10.330Z,94060.94
2022-11-18T12:18:46.730Z,94055.66
2022-11-18T12:21:45.036Z,94055.19
2022-11-18T12:24:18.112Z,94053.28
2022-11-18T12:26:47.500Z,94050.56
2022-11-18T12:29:20.682Z,94062.16
2022-11-18T12:31:55.854Z,94059.94
2022-11-18T12:34:25.435Z,94057.56
2022-11-18T12:36:54.650Z,94063.44
2022-11-18T12:39:24.792Z,94067.25
2022-11-18T12:41:58.422Z,94066.78
2022-11-18T12:44:27.862Z,94063.50
2022-11-18T12:47:02.446Z,94072.75
2022-11-18T12:49:29.458Z,94085.94
2022-11-18T12:52:01.244Z,94084.34
2022-11-18T12:54:30.822Z,94078.16
2022-11-18T12:57:01.118Z,94090.75
2022-11-18T12:59:31.682Z,94097.63
2022-11-18T13:02:10.844Z,94084.44
2022-11-18T13:04:45.768Z,94093.06
2022-11-18T13:07:14.093Z,94101.19
2022-11-18T13:09:41.486Z,94106.03
2022-11-18T13:12:17.795Z,94108.28
2022-11-18T13:14:45.768Z,94103.31
2022-11-18T13:17:35.840Z,94110.06
2022-11-18T13:20:03.297Z,94109.59
2022-11-18T13:22:30.385Z,94112.81
2022-11-18T13:24:57.438Z,94113.16
2022-11-18T13:27:49.242Z,94110.53
2022-11-18T13:30:17.370Z,94118.31
2022-11-18T13:32:46.866Z,94112.63
2022-11-18T13:35:19.893Z,94120.06
2022-11-18T13:37:52.671Z,94129.38
2022-11-18T13:40:28.769Z,94136.03
2022-11-18T13:42:56.180Z,94127.47
2022-11-18T13:45:28.354Z,94135.38
2022-11-18T13:48:05.736Z,94134.59
2022-11-18T13:50:37.422Z,94134.94
2022-11-18T13:53:26.073Z,94136.38
2022-11-18T13:56:14.330Z,94137.84
2022-11-18T14:01:38.794Z,94146.91
2022-11-18T14:04:16.367Z,94145.31
2022-11-18T14:06:43.537Z,94139.16
2022-11-18T14:09:27.305Z,94142.16
2022-11-18T14:12:13.574Z,94143.28
2022-11-18T14:14:43.033Z,94144.88
2022-11-18T14:17:24.497Z,94149.16
2022-11-18T14:19:54.349Z,94150.72
2022-11-18T14:22:24.545Z,94146.47
2022-11-18T14:25:00.053Z,94148.03
2022-11-18T14:27:44.976Z,94155.03
2022-11-18T14:30:31.947Z,94155.81
2022-11-18T14:33:18.788Z,94155.81
2022-11-18T14:35:51.850Z,94162.13
2022-11-18T14:38:57.597Z,94161.31
2022-11-18T14:41:29.902Z,94164.03
2022-11-18T14:43:56.954Z,94164.50
2022-11-18T14:46:24.100Z,94159.91
2022-11-18T14:48:51.311Z,94166.88
2022-11-18T14:51:18.367Z,94172.28
2022-11-18T14:53:45.454Z,94169.25
2022-11-18T14:56:18.260Z,94169.25
2022-11-18T14:58:45.357Z,94167.00
2022-11-18T15:01:13.260Z,94173.19
2022-11-18T15:03:40.503Z,94166.22
2022-11-18T15:06:15.878Z,94174.00
2022-11-18T15:08:44.367Z,94167.97
2022-11-18T15:11:12.063Z,94182.28
2022-11-18T15:13:40.214Z,94171.78
2022-11-18T15:16:12.953Z,94189.28
2022-11-18T15:18:40.097Z,94189.59
2022-11-18T15:21:07.202Z,94194.34
2022-11-18T15:23:34.266Z,94198.94
2022-11-18T15:26:02.740Z,94195.91
2022-11-18T15:28:29.891Z,94201.63
2022-11-18T15:30:56.933Z,94210.06
2022-11-18T15:33:24.015Z,94211.00
2022-11-18T15:35:51.069Z,94210.22
2022-11-18T15:38:18.173Z,94222.13
2022-11-18T15:40:45.226Z,94214.34
2022-11-18T15:43:12.473Z,94208.50
2022-11-18T15:45:39.572Z,94208.81
2022-11-18T15:48:06.626Z,94215.34
2022-11-18T15:50:33.677Z,94214.56
2022-11-18T15:53:00.937Z,94212.19
2022-11-18T15:55:27.985Z,94216.00
2022-11-18T15:57:55.029Z,94229.53
2022-11-18T16:00:22.101Z,94230.31
2022-11-18T16:02:49.161Z,94228.72
2022-11-18T16:05:16.298Z,94229.03
2022-11-18T16:07:43.499Z,94230.94
2022-11-18T16:10:10.669Z,94234.75
2022-11-18T16:12:37.726Z,94238.59
2022-11-18T16:15:05.277Z,94227.78
2022-11-18T16:17:32.346Z,94235.06
2022-11-18T16:19:59.433Z,94232.38
2022-11-18T16:22:26.597Z,94240.47
2022-11-18T16:24:53.670Z,94233.50
2022-11-18T16:27:20.855Z,94243.50
2022-11-18T16:29:48.147Z,94241.94
2022-11-18T16:32:15.201Z,94244.63
2022-11-18T16:34:42.262Z,94249.22
2022-11-18T16:37:09.406Z,94255.13
2022-11-18T16:39:36.441Z,94257.50
2022-11-18T16:42:10.557Z,94255.91
2022-11-18T16:44:37.789Z,94252.41
2022-11-18T16:47:13.830Z,94269.06
2022-11-18T16:49:42.358Z,94264.78
2022-11-18T16:52:09.614Z,94268.28
2022-11-18T16:54:42.993Z,94269.06
2022-11-18T16:57:12.551Z,94278.78
2022-11-18T16:59:39.757Z,94274.16
2022-11-18T17:02:07.471Z,94286.88
2022-11-18T17:04:34.977Z,94282.25
2022-11-18T17:07:02.059Z,94281.47
2022-11-18T17:09:32.183Z,94293.84
2022-11-18T17:11:59.235Z,94293.69
2022-11-18T17:14:26.433Z,94296.84
2022-11-18T17:16:53.582Z,94299.88
2022-11-18T17:19:23.159Z,94301.47
2022-11-18T17:21:51.368Z,94299.56
2022-11-18T17:24:21.261Z,94306.56
2022-11-18T17:26:49.120Z,94303.53
2022-11-18T17:29:17.056Z,94307.81
2022-11-18T17:31:44.261Z,94322.28
2022-11-18T17:34:13.692Z,94312.09
2022-11-18T17:36:41.608Z,94313.03
2022-11-18T17:39:10.206Z,94318.13
2022-11-18T17:41:37.546Z,94322.88
2022-11-18T17:44:06.608Z,94332.88
2022-11-18T17:46:38.040Z,94321.75
2022-11-18T17:49:10.866Z,94332.53
2022-11-18T17:51:38.047Z,94323.81
2022-11-18T17:54:05.406Z,94320.00
2022-11-18T17:56:32.517Z,94320.81
2022-11-18T17:58:59.799Z,94327.47
2022-11-18T18:01:26.959Z,94326.69
2022-11-18T18:03:54.166Z,94331.75
2022-11-18T18:06:21.416Z,94347.94
2022-11-18T18:08:48.602Z,94350.31
2022-11-18T18:11:18.425Z,94349.53
2022-11-18T18:13:45.745Z,94344.13
2022-11-18T18:16:12.831Z,94359.25
2022-11-18T18:18:40.587Z,94358.44
2022-11-18T18:21:12.651Z,94359.25
2022-11-18T18:23:40.292Z,94359.69
2022-11-18T18:26:09.255Z,94362.41
2022-11-18T18:28:36.929Z,94361.63
2022-11-18T18:31:07.019Z,94364.00
2022-11-18T18:33:35.013Z,94358.28
2022-11-18T18:36:05.733Z,94353.97
2022-11-18T18:38:33.756Z,94346.19
2022-11-18T18:41:02.913Z,94358.44
2022-11-18T18:43:30.287Z,94354.47
2022-11-18T18:46:06.250Z,94360.84
2022-11-18T18:48:33.563Z,94361.47
2022-11-18T18:51:04.437Z,94364.81
2022-11-18T18:53:32.438Z,94362.75
2022-11-18T18:55:59.782Z,94376.44
2022-11-18T18:58:26.987Z,94370.91
2022-11-18T19:00:58.064Z,94376.44
2022-11-18T19:03:25.501Z,94383.63
2022-11-18T19:06:27.380Z,94385.03
2022-11-18T19:08:39.707Z,94387.28
2022-11-18T19:11:06.849Z,94390.75
2022-11-18T19:13:33.911Z,94388.88
2022-11-18T19:16:05.788Z,94399.66
2022-11-18T19:18:36.007Z,94396.66
2022-11-18T19:21:03.373Z,94396.47
2022-11-18T19:23:30.381Z,94386.31
2022-11-18T19:26:01.248Z,94397.13
2022-11-18T19:28:28.321Z,94397.44
2022-11-18T19:30:55.470Z,94400.13
2022-11-18T19:33:22.742Z,94396.50
2022-11-18T19:35:49.737Z,94406.03
2022-11-18T19:38:16.919Z,94401.25
2022-11-18T19:40:44.001Z,94406.50
2022-11-18T19:43:11.062Z,94418.09
2022-11-18T19:45:38.325Z,94417.94
2022-11-18T19:48:05.493Z,94428.75
2022-11-18T19:50:32.673Z,94433.34
2022-11-18T19:52:59.717Z,94431.44
2022-11-18T19:55:26.814Z,94434.28
2022-11-18T19:57:54.132Z,94429.72
2022-11-18T20:00:21.327Z,94434.78
2022-11-18T20:02:48.383Z,94424.47
2022-11-18T20:05:15.738Z,94422.22
2022-11-18T20:07:42.755Z,94420.81
2022-11-18T20:10:10.413Z,94421.72
2022-11-18T20:12:37.581Z,94424.94
2022-11-18T20:15:05.116Z,94425.25
2022-11-18T20:17:32.188Z,94434.59
2022-11-18T20:19:59.292Z,94427.78
2022-11-18T20:22:26.427Z,94426.66
2022-11-18T20:24:53.491Z,94437.47
2022-11-18T20:27:20.782Z,94445.56
2022-11-18T20:29:47.855Z,94440.16
2022-11-18T20:32:14.909Z,94436.34
2022-11-18T20:34:42.125Z,94445.56
2022-11-18T20:37:09.187Z,94442.69
2022-11-18T20:39:36.423Z,94445.72
2022-11-18T20:42:03.578Z,94440.94
2022-11-18T20:44:30.831Z,94449.69
2022-11-18T20:46:57.915Z,94448.44
2022-11-18T20:49:25.067Z,94454.31
2022-11-18T20:51:52.131Z,94454.13
2022-11-18T20:54:19.189Z,94450.19
2022-11-18T20:56:46.295Z,94448.75
2022-11-18T20:59:13.632Z,94439.69
2022-11-18T21:01:40.872Z,94451.09
2022-11-18T21:04:10.887Z,94442.72
2022-11-18T21:06:38.064Z,94449.53
2022-11-18T21:09:06.373Z,94456.50
2022-11-18T21:11:34.489Z,94462.97
2022-11-18T21:14:01.974Z,94456.19
2022-11-18T21:16:29.100Z,94465.38
2022-11-18T21:18:56.541Z,94470.59
2022-11-18T21:21:23.551Z,94468.84
2022-11-18T21:23:58.011Z,94480.72
2022-11-18T21:26:27.832Z,94469.00
2022-11-18T21:28:57.437Z,94473.88
2022-11-18T21:31:26.158Z,94479.28
2022-11-18T21:33:53.912Z,94481.97
2022-11-18T21:36:22.044Z,94487.06
2022-11-18T21:38:48.997Z,94483.88
2022-11-18T21:41:16.277Z,94471.84
2022-11-18T21:44:04.394Z,94487.22
2022-11-18T21:46:31.034Z,94487.06
2022-11-18T21:49:00.397Z,94487.22
2022-11-18T21:51:28.247Z,94490.72
2022-11-18T21:53:55.303Z,94501.19
2022-11-18T21:56:24.214Z,94495.47
2022-11-18T21:58:52.451Z,94500.84
2022-11-18T22:01:22.084Z,94495.81
2022-11-18T22:03:55.200Z,94507.22
2022-11-18T22:06:24.693Z,94508.31
2022-11-18T22:08:52.567Z,94507.22
2022-11-18T22:11:20.247Z,94511.81
2022-11-18T22:13:47.335Z,94510.69
2022-11-18T22:16:19.572Z,94516.28
2022-11-18T22:18:51.730Z,94519.78
2022-11-18T22:21:23.516Z,94506.28
2022-11-18T22:23:50.573Z,94509.78
2022-11-18T22:26:20.106Z,94516.75
2022-11-18T22:28:48.012Z,94509.44
2022-11-18T22:31:19.795Z,94509.44
2022-11-18T22:33:47.700Z,94505.66
2022-11-18T22:36:16.416Z,94509.78
2022-11-18T22:38:44.773Z,94513.91
2022-11-18T22:41:16.810Z,94506.13
2022-11-18T22:43:43.985Z,94503.44
2022-11-18T22:46:11.160Z,94511.50
2022-11-18T22:48:38.270Z,94504.53
2022-11-18T22:51:06.666Z,94506.13
2022-11-18T22:53:33.713Z,94504.06
2022-11-18T22:56:02.823Z,94495.81
2022-11-18T22:58:30.325Z,94504.19
2022-11-18T23:01:24.032Z,94510.84
2022-11-18T23:03:52.022Z,94505.75
2022-11-18T23:06:19.426Z,94510.97
2022-11-18T23:08:46.525Z,94513.19
2022-11-18T23:11:19.514Z,94516.19
2022-11-18T23:13:46.598Z,94516.97
2022-11-18T23:16:13.884Z,94513.50
2022-11-18T23:18:40.950Z,94516.19
2022-11-18T23:21:07.994Z,94520.97
2022-11-18T23:23:35.190Z,94503.69
2022-11-18T23:26:07.241Z,94516.53
2022-11-18T23:28:34.885Z,94515.59
2022-11-18T23:31:17.620Z,94510.22
2022-11-18T23:33:45.451Z,94511.63
2022-11-18T23:36:15.084Z,94512.94
2022-11-18T23:38:42.486Z,94512.63
2022-11-18T23:41:11.637Z,94512.00
2022-11-18T23:43:39.610Z,94517.53
2022-11-18T23:46:09.273Z,94514.53
2022-11-18T23:48:38.521Z,94515.50
2022-11-18T23:51:10.729Z,94505.50
2022-11-18T23:53:39.023Z,94508.38
2022-11-18T23:56:11.762Z,94515.34
2022-11-18T23:58:40.374Z,94516.66
